Главная страница
METAR-TAF:

METAR-TAF

Аэропорты :

Chautauqua County/Dunkirk Airport

Dunkirk, Нью-Йорк, США

широта: 42-29-35N, долгота: 079-16-33W, высота над уровнем моря: 211 м

Текущие метеонаблюдения

Эта сводка был подготовлена 15 минут назад, в 15:53 UTC
Ветер 16 Узел от западный с порывами до 25 Узел
Температура 1°C
Влажность 80%
Давление 1018 hPa
Видимость: 16.1 км
небольшая облачность на высоте 1300 фута
Рассеянная облачность на высоте 5000 фута
Сплошная облачность на высоте 6000 фута

METAR: KDKK 161553Z AUTO 27016G25KT 10SM FEW013 BKN050 OVC060 01/M02 A3006 RMK AO2 SNE31 SLP189 P0003 T00061022

Время: 11:08 (16:08 UTC)


TAF: отсутствует

Метеонаблюдения и прогнозы для более 4000 аэропортов (сводки METAR и TAF).

Имеющиеся станции представлены на карте желтыми и красными точками.

Чтобы увидеть название станции, наведите на нее мышь.

Затем щелкните, чтобы увидеть метеонаблюдения и метеопрогнозы.

Управление картой: чтобы увеличить масштаб, щелкните зеленые кнопки с черным крестиком; чтобы уменьшить масштаб, щелкните зеленую кнопку с тире; для просмотра соседних карт щелкайте зеленые стрелки.


METAR-TAF: